Latest Weather Observations for Tennant Creek

IDD60801

Issued at 1:31 pm CST Friday 24 February 2017 (issued every 30 minutes, with the page automatically refreshed every 10 minutes)

About weather observations | Map of weather stations | Latest weather observations for NT | Other Formats
Station Details ID: 015135 Name: TENNANT CREEK AIRPORT Lat: -19.64 Lon: 134.18 Height: 375.7 m
Data from the previous 72 hours. | See also: Recent months at Tennant Creek
Date/Time
CST
Temp
°C
App
Temp
°C
Dew
Point
°C
Rel
Hum
%
Delta-T
°C
Wind Press
QNH
hPa
Press
MSL
hPa
Rain since
9am
mm
Dir  Spd
km/h
Gust
km/h
Spd
kts
Gust
kts
24/01:30pm 32.2 30.3 19.4 46 8.5 NE 28 41 15 22 1014.2 - 0.0
24/01:00pm 31.1 30.6 19.9 51 7.5 NE 22 30 12 16 1015.0 - 0.0
24/12:30pm 30.7 29.7 20.4 54 6.9 ENE 26 39 14 21 1015.5 - 0.0
24/12:00pm 31.0 30.8 21.3 56 6.6 E 24 32 13 17 1015.9 1013.0 0.0
24/11:30am 30.5 29.9 21.2 57 6.3 ENE 26 33 14 18 1016.1 - 0.0
24/11:00am 29.4 28.6 21.6 63 5.3 ENE 28 43 15 23 1016.4 - 0.0
24/10:30am 29.1 29.0 22.2 66 4.7 E 26 39 14 21 1016.6 - 0.0
24/10:00am 28.2 28.4 22.8 72 3.7 ENE 26 35 14 19 1016.7 - 0.0
24/09:30am 26.2 27.7 23.1 83 2.1 E 20 26 11 14 1016.8 - 0.0
24/09:00am 24.3 25.7 22.8 91 1.0 E 20 28 11 15 1016.9 1014.0 4.8
24/08:30am 23.5 24.7 22.2 92 0.9 E 19 28 10 15 1016.8 - 4.8
24/08:02am 23.1 24.2 22.4 96 0.5 E 20 30 11 16 1016.8 - 4.8
24/08:00am 23.0 24.1 22.4 96 0.4 E 20 30 11 16 1016.8 - 4.8
24/07:54am 22.9 24.3 22.5 98 0.3 E 19 28 10 15 1016.8 - 4.8
24/07:30am 22.8 23.5 22.2 96 0.4 E 22 28 12 15 1016.6 - 3.6
24/07:24am 22.9 23.9 22.2 96 0.5 ENE 20 28 11 15 1016.6 - 3.0
24/07:20am 23.1 24.1 22.2 95 0.6 ENE 20 28 11 15 1016.5 - 3.0
24/07:00am 23.3 24.3 21.7 91 1.1 E 19 28 10 15 1016.1 - 2.8
24/06:30am 23.3 23.7 21.7 91 1.1 E 22 32 12 17 1015.7 - 2.8
24/06:00am 23.5 23.5 21.7 90 1.2 E 24 32 13 17 1015.4 1012.4 2.8
24/05:30am 23.6 23.6 21.7 89 1.3 E 24 33 13 18 1015.1 - 2.8
24/05:00am 23.5 23.5 21.7 90 1.2 E 24 32 13 17 1014.3 - 2.8
24/04:30am 23.3 23.3 21.7 91 1.1 E 24 35 13 19 1013.9 - 2.8
24/04:22am 23.2 23.2 21.7 91 1.0 E 24 32 13 17 1013.9 - 2.8
24/04:00am 23.2 23.2 21.7 91 1.0 E 24 32 13 17 1014.0 - 2.8
24/03:39am 23.4 23.5 21.8 91 1.1 E 24 33 13 18 1014.0 - 2.8
24/03:30am 23.3 23.4 21.8 91 1.0 E 24 35 13 19 1013.9 - 2.8
24/03:00am 23.3 23.7 21.8 91 1.0 E 22 32 12 17 1013.6 1010.7 2.8
24/02:48am 23.3 23.4 21.8 91 1.0 E 24 33 13 18 1013.5 - 2.8
24/02:30am 23.4 23.5 21.8 91 1.1 E 24 33 13 18 1013.6 - 2.8
24/02:08am 23.7 23.2 21.5 87 1.5 E 26 35 14 19 1013.8 - 2.8
24/02:00am 23.8 23.3 21.4 86 1.6 E 26 39 14 21 1013.8 - 2.8
24/01:30am 23.9 24.9 22.1 90 1.2 E 20 30 11 16 1014.0 - 2.8
24/01:00am 24.3 24.4 21.9 86 1.6 E 24 33 13 18 1014.2 - 2.8
24/12:30am 24.5 25.1 22.1 86 1.6 E 22 30 12 16 1014.4 - 2.8
24/12:00am 24.2 25.3 22.3 89 1.3 E 20 26 11 14 1014.6 1011.7 2.8
 
Date/Time
CST
Temp
°C
App
Temp
°C
Dew
Point
°C
Rel
Hum
%
Delta-T
°C
Wind Press
QNH
hPa
Press
MSL
hPa
Rain since
9am
mm
Dir  Spd
km/h
Gust
km/h
Spd
kts
Gust
kts
23/11:30pm 24.2 25.8 22.1 88 1.4 E 17 26 9 14 1014.5 - 2.8
23/11:00pm 24.1 25.0 22.0 88 1.4 E 20 26 11 14 1014.8 - 2.8
23/10:30pm 23.8 25.2 21.9 89 1.3 E 17 28 9 15 1014.8 - 2.8
23/10:00pm 24.1 24.4 22.3 90 1.2 E 24 39 13 21 1015.0 - 2.8
23/09:42pm 25.1 24.8 22.6 86 1.7 E 28 48 15 26 1015.0 - 2.8
23/09:30pm 26.6 28.3 22.3 77 2.9 ESE 17 24 9 13 1014.7 - 2.8
23/09:00pm 26.4 28.8 22.3 78 2.8 ESE 13 20 7 11 1014.1 1011.2 2.8
23/08:30pm 26.3 28.9 21.9 77 3.0 E 11 17 6 9 1013.5 - 2.8
23/08:00pm 26.4 29.9 22.1 77 2.9 E 7 11 4 6 1013.1 - 2.8
23/07:30pm 26.5 30.0 22.2 77 2.9 ENE 7 9 4 5 1012.9 - 2.8
23/07:00pm 26.3 28.9 21.2 73 3.4 SE 9 13 5 7 1012.9 - 2.8
23/06:30pm 26.2 25.7 21.4 75 3.2 ESE 26 39 14 21 1012.7 - 2.8
23/06:12pm 28.3 25.7 20.7 63 5.1 ESE 35 46 19 25 1012.0 - 2.8
23/06:00pm 28.1 31.0 21.1 65 4.7 ESE 7 11 4 6 1011.4 1008.5 2.8
23/05:30pm 26.0 24.2 21.1 74 3.3 ESE 32 54 17 29 1011.3 - 2.8
23/05:21pm 27.9 26.5 21.1 66 4.6 ESE 30 54 16 29 1011.3 - 2.6
23/05:00pm 29.9 29.3 20.4 56 6.4 SE 24 32 13 17 1011.0 - 2.6
23/04:43pm 28.9 32.7 22.7 69 4.3 SE 7 24 4 13 1011.0 - 2.6
23/04:30pm 26.9 31.6 24.0 84 2.0 ENE 6 6 3 3 1011.1 - 2.6
23/04:23pm 27.7 26.7 21.2 67 4.4 E 28 48 15 26 1010.9 - 1.6
23/04:22pm 28.0 26.6 22.0 70 4.1 E 32 48 17 26 1011.0 - 1.0
23/04:21pm 28.5 27.4 22.5 70 4.1 E 32 48 17 26 1010.9 - 0.6
23/04:00pm 34.4 34.0 18.0 37 10.8 E 17 28 9 15 1010.6 - 0.0
23/03:30pm 32.8 30.9 17.6 40 9.9 ESE 24 33 13 18 1011.1 - 0.0
23/03:00pm 33.2 31.5 17.3 38 10.3 ESE 22 30 12 16 1011.2 1008.3 0.0
23/02:30pm 33.3 31.5 17.9 40 10.1 E 24 39 13 21 1011.4 - 0.0
23/02:00pm 32.5 30.5 17.4 40 9.8 E 24 33 13 18 1011.7 - 0.0
23/01:30pm 33.0 32.0 17.5 39 10.1 ESE 19 32 10 17 1012.4 - 0.0
23/01:00pm 32.5 31.4 17.8 41 9.6 ESE 20 32 11 17 1012.7 - 0.0
23/12:30pm 32.1 30.5 18.4 44 9.0 ESE 24 30 13 16 1013.1 - 0.0
23/12:00pm 31.3 30.9 18.9 47 8.2 E 19 30 10 16 1013.6 1010.7 0.0
23/11:45am 30.3 28.9 18.9 50 7.5 E 24 32 13 17 1013.8 - 0.0
23/11:44am 30.9 29.5 18.9 48 7.9 E 24 32 13 17 1013.8 - 0.0
23/11:30am 30.6 30.2 19.3 51 7.5 E 20 32 11 17 1014.0 - 0.0
23/11:00am 29.6 29.3 19.5 54 6.7 ESE 20 30 11 16 1014.3 - 0.0
23/10:55am 29.5 29.3 19.7 55 6.5 E 20 30 11 16 1014.3 - 0.0
23/10:53am 29.2 28.9 19.5 56 6.4 E 20 30 11 16 1014.4 - 0.0
23/10:30am 29.0 28.8 19.8 57 6.1 ENE 20 32 11 17 1014.6 - 0.0
23/10:00am 28.7 28.4 19.6 58 6.0 E 20 33 11 18 1014.8 - 0.0
23/09:30am 28.2 27.7 19.9 60 5.5 ENE 22 32 12 17 1015.0 - 0.0
23/09:00am 27.5 26.0 20.3 65 4.8 ENE 28 35 15 19 1014.7 1011.8 0.0
23/08:30am 26.4 25.8 20.5 70 3.9 E 24 32 13 17 1014.4 - 0.0
23/08:00am 25.5 24.7 20.8 75 3.1 E 26 35 14 19 1013.9 - 0.0
23/07:30am 24.3 25.2 21.5 84 1.9 E 19 28 10 15 1013.5 - 0.0
23/07:00am 23.1 24.9 21.1 88 1.3 E 13 17 7 9 1013.1 - 0.0
23/06:30am 22.8 24.5 21.0 89 1.2 E 13 20 7 11 1012.7 - 0.0
23/06:00am 23.1 24.8 21.0 88 1.4 ENE 13 17 7 9 1012.4 1009.4 0.0
23/05:30am 23.2 24.6 21.1 88 1.4 ENE 15 20 8 11 1012.3 - 0.0
23/05:00am 23.5 24.8 20.8 85 1.8 ENE 15 22 8 12 1012.2 - 0.0
23/04:30am 23.7 24.1 20.7 83 2.0 ENE 19 24 10 13 1011.7 - 0.0
23/04:00am 23.6 24.2 21.0 85 1.7 E 19 26 10 14 1011.3 - 0.0
23/03:30am 24.1 25.4 20.9 82 2.1 E 15 20 8 11 1011.4 - 0.0
23/03:00am 24.5 25.4 20.9 80 2.4 ENE 17 24 9 13 1011.3 1008.4 0.0
23/02:30am 25.0 26.4 21.1 79 2.6 ENE 15 22 8 12 1011.3 - 0.0
23/02:00am 25.4 26.9 21.2 77 2.8 NE 15 20 8 11 1011.3 - 0.0
23/01:30am 25.8 26.8 21.0 75 3.2 NE 17 22 9 12 1011.4 - 0.0
23/01:00am 26.5 27.0 20.8 71 3.8 NE 19 26 10 14 1011.5 - 0.0
23/12:30am 27.2 26.4 20.1 65 4.7 NE 24 33 13 18 1011.8 - 0.0
23/12:00am 28.5 27.3 18.3 54 6.6 NE 22 28 12 15 1012.0 1009.1 0.0
 
Date/Time
CST
Temp
°C
App
Temp
°C
Dew
Point
°C
Rel
Hum
%
Delta-T
°C
Wind Press
QNH
hPa
Press
MSL
hPa
Rain since
9am
mm
Dir  Spd
km/h
Gust
km/h
Spd
kts
Gust
kts
22/11:30pm 27.8 27.6 13.5 41 8.6 E 7 17 4 9 1012.2 - 0.0
22/11:00pm 30.0 28.8 11.7 32 10.8 SE 9 11 5 6 1012.0 - 0.0
22/10:30pm 28.6 25.8 12.7 37 9.5 E 19 22 10 12 1012.2 - 0.0
22/10:00pm 27.6 26.9 14.3 44 8.1 SSW 11 17 6 9 1011.6 - 0.0
22/09:30pm 29.9 29.7 13.0 35 10.2 SE 6 9 3 5 1011.5 - 0.0
22/09:00pm 30.0 30.1 14.0 37 9.8 ESE 6 7 3 4 1011.3 1008.4 0.0
22/08:30pm 30.9 30.0 11.4 30 11.5 ESE 7 9 4 5 1011.1 - 0.0
22/08:00pm 31.3 30.3 11.1 29 11.9 ESE 7 9 4 5 1010.9 - 0.0
22/07:30pm 31.9 30.3 10.3 26 12.6 ESE 9 11 5 6 1010.4 - 0.0
22/07:00pm 33.4 30.8 9.4 23 13.9 SE 13 20 7 11 1010.1 - 0.0
22/06:30pm 34.2 31.1 8.9 21 14.6 SE 15 20 8 11 1009.9 - 0.0
22/06:00pm 34.6 30.8 9.0 20 14.8 SE 19 24 10 13 1009.5 1006.5 0.0
22/05:30pm 34.8 31.1 9.4 21 14.8 SSE 19 30 10 16 1009.4 - 0.0
22/05:00pm 35.6 32.5 10.3 21 15.0 SSE 17 26 9 14 1009.1 - 0.0
22/04:30pm 35.9 31.8 8.8 19 15.7 S 20 30 11 16 1009.2 - 0.0
22/04:00pm 36.2 33.0 10.0 20 15.5 SSE 17 24 9 13 1009.4 - 0.0
22/03:30pm 35.8 31.7 8.7 19 15.7 SSE 20 33 11 18 1009.5 - 0.0
22/03:00pm 36.0 31.2 9.0 19 15.7 SSE 24 32 13 17 1009.7 1006.7 0.0
22/02:30pm 36.0 32.0 8.4 18 15.9 SSE 19 28 10 15 1009.9 - 0.0
22/02:00pm 36.0 33.1 10.9 22 15.0 ESE 17 26 9 14 1010.3 - 0.0
22/01:30pm 35.3 31.5 9.7 21 15.0 ESE 20 32 11 17 1010.7 - 0.0
22/01:00pm 34.4 31.5 12.8 27 13.2 ESE 20 35 11 19 1011.3 - 0.0
22/12:30pm 33.8 30.3 12.3 27 13.0 ESE 22 39 12 21 1011.9 - 0.0
22/12:00pm 33.6 33.4 16.7 36 10.9 ESE 13 28 7 15 1012.4 1009.4 0.0
22/11:30am 32.4 32.5 18.4 43 9.2 SE 15 24 8 13 1012.7 - 0.0
22/11:00am 31.7 31.8 18.3 45 8.8 E 15 26 8 14 1013.0 - 0.0
22/10:30am 30.6 31.9 20.1 53 7.0 E 13 24 7 13 1013.2 - 0.0
22/10:00am 29.8 31.2 20.4 57 6.3 E 13 22 7 12 1013.1 - 0.0
22/09:30am 29.0 30.4 20.3 59 5.8 ENE 13 20 7 11 1013.4 - 0.0
22/09:00am 28.4 29.8 20.3 61 5.4 E 13 22 7 12 1013.5 1010.6 0.0
22/08:30am 27.7 33.5 27.7 100 0.0 E 13 20 7 11 1013.3 - 0.0
22/08:00am 26.6 31.6 26.6 100 0.0 E 13 17 7 9 1013.1 - 0.0
22/07:30am 25.5 30.6 25.5 100 0.0 E 9 13 5 7 1012.9 - 0.0
22/07:00am 23.7 29.3 23.6 99 0.1 CALM 0 7 0 4 1012.5 - 0.0
22/06:30am 21.5 26.0 21.5 100 0.0 CALM 0 0 0 0 1012.0 - 0.0
22/06:00am 21.4 25.8 21.4 100 0.0 CALM 0 0 0 0 1011.9 1009.0 0.0
22/05:30am 21.7 25.9 21.7 100 0.0 E 2 6 1 3 1011.6 - 0.0
22/05:00am 22.0 26.3 21.9 99 0.1 E 2 9 1 5 1011.4 - 0.0
22/04:30am 22.0 26.3 22.0 100 0.0 NNE 2 9 1 5 1010.8 - 0.0
22/04:00am 21.9 26.6 21.9 100 0.0 CALM 0 0 0 0 1010.8 - 0.0
22/03:30am 22.0 26.7 22.0 100 0.0 CALM 0 0 0 0 1010.7 - 0.0
22/03:00am 22.2 26.2 22.1 99 0.1 N 4 7 2 4 1010.7 1007.8 0.0
22/02:30am 22.0 25.6 22.0 100 0.0 N 6 7 3 4 1010.8 - 0.0
22/02:00am 22.7 26.5 22.7 100 0.0 N 7 9 4 5 1010.9 - 0.0
22/01:30am 23.1 27.7 23.1 100 0.0 N 4 6 2 3 1011.4 - 0.0
22/01:00am 24.2 29.0 24.2 100 0.0 NE 6 9 3 5 1011.7 - 0.0
22/12:30am 24.6 29.5 24.6 100 0.0 E 7 9 4 5 1011.9 - 0.0
22/12:00am 25.0 28.9 24.9 99 0.1 E 13 17 7 9 1012.0 1009.1 0.0
 
Date/Time
CST
Temp
°C
App
Temp
°C
Dew
Point
°C
Rel
Hum
%
Delta-T
°C
Wind Press
QNH
hPa
Press
MSL
hPa
Rain since
9am
mm
Dir  Spd
km/h
Gust
km/h
Spd
kts
Gust
kts
21/11:30pm 26.3 32.1 26.0 98 0.2 S 7 9 4 5 1012.0 - 0.0
21/11:00pm 25.7 30.7 25.4 98 0.2 SSW 9 11 5 6 1012.3 - 0.0
21/10:30pm 25.8 31.4 25.8 100 0.0 SSW 7 9 4 5 1012.3 - 0.0
21/10:00pm 27.6 34.1 27.6 100 0.0 S 9 11 5 6 1012.3 - 0.0
21/09:30pm 29.0 36.5 29.0 100 0.0 S 9 13 5 7 1012.0 - 0.0
21/09:00pm 29.5 37.0 29.5 100 0.0 S 11 13 6 7 1011.8 1008.9 0.0
21/08:30pm 29.7 37.8 29.7 100 0.0 S 9 13 5 7 1011.6 - 0.0
21/08:00pm 30.0 37.5 30.0 100 0.0 SSE 13 20 7 11 1011.3 - 0.0
21/07:30pm 30.7 38.8 30.7 100 0.0 SSE 13 17 7 9 1011.0 - 0.0
21/07:00pm 31.6 41.2 31.6 100 0.0 SSE 9 17 5 9 1010.6 - 0.0
21/06:30pm 32.8 42.0 32.8 100 0.0 SE 17 26 9 14 1010.3 - 0.0
21/06:00pm 33.4 42.7 33.3 99 0.1 SE 19 30 10 16 1010.0 1007.0 0.0
21/05:30pm 34.0 42.0 31.0 84 2.3 SSE 15 22 8 12 1009.9 - 0.0
21/05:00pm 34.4 33.5 16.8 35 11.4 SSE 17 24 9 13 1009.9 - 0.0
21/04:30pm 34.2 31.0 6.8 18 15.3 ESE 13 24 7 13 1009.9 - 0.0
21/04:00pm 34.5 29.5 4.7 15 16.1 SSE 20 30 11 16 1010.0 - 0.0
21/03:30pm 34.3 27.6 3.6 14 16.3 SSE 28 33 15 18 1010.1 - 0.0
21/03:00pm 34.1 29.6 2.3 13 16.5 ESE 15 30 8 16 1010.3 1007.3 0.0
21/02:30pm 34.0 28.5 2.1 13 16.5 SE 20 33 11 18 1010.8 - 0.0
21/02:00pm 33.9 29.0 2.2 13 16.4 ESE 17 28 9 15 1011.5 - 0.0

Other Formats:

Comma delimited format used in spreadsheet applications
http://www.bom.gov.au/fwo/IDD60801/IDD60801.94238.axf

JavaScript Object Notation format (JSON) in row-major order
http://www.bom.gov.au/fwo/IDD60801/IDD60801.94238.json